Air Resources Laboratory banner image
Air Resources Laboratory web site National Oceanic and Atmospheric Administration (NOAA)

md metar


KADW 191256Z AUTO 01006KT 10SM CLR 23/19 A2993 RMK AO2 SLP140 T02320189 $=
KBWI 191254Z VRB05KT 10SM SCT014 SCT022 SCT038 23/19 A2992 RMK AO2 SLP130
 T02280194=
KDMH 191254Z AUTO 23/19 A2992 RMK AO1 SLP133 T02330194=
KFME 191254Z AUTO 35005KT 10SM SCT015 SCT023 SCT031 22/19 A2995 RMK AO1=
KHGR 191253Z 32005KT 10SM CLR 22/18 A2996 RMK AO2 SLP151 T02220178=
KMTN 191250Z 33005KT 10SM BKN012 BKN020 OVC030 23/21 A2994=
KNHK 191252Z 33008KT 10SM FEW009 BKN180 BKN300 24/22 A2990 RMK AO2 SLP125
 T02440222 10250 20228 53017=
KOXB 191253Z AUTO 31006KT 10SM CLR 27/24 A2989 RMK AO2 SLP120 T02670239=
KSBY 191254Z 28006KT 10SM CLR 27/24 A2989 RMK AO2 SLP122 T02670239=